createdAt,value
2018-07-04T00:02:02.032Z,97.20
2018-07-04T00:04:41.721Z,97.50
2018-07-04T00:07:21.396Z,97.60
2018-07-04T00:10:00.998Z,97.70
2018-07-04T00:12:40.749Z,97.90
2018-07-04T00:15:20.240Z,98.00
2018-07-04T00:17:59.766Z,98.20
2018-07-04T00:20:40.704Z,98.20
2018-07-04T00:23:20.534Z,98.40
2018-07-04T00:26:00.206Z,98.40
2018-07-04T00:28:39.950Z,98.60
2018-07-04T00:31:19.518Z,98.70
2018-07-04T00:33:59.198Z,98.70
2018-07-04T00:36:38.920Z,99.20
2018-07-04T00:39:18.730Z,99.20
2018-07-04T00:41:58.551Z,99.30
2018-07-04T00:44:38.226Z,99.40
2018-07-04T00:47:18.461Z,99.60
2018-07-04T00:49:58.115Z,99.40
2018-07-04T00:52:37.976Z,99.60
2018-07-04T00:55:18.303Z,99.90
2018-07-04T00:57:58.047Z,99.90
2018-07-04T01:00:37.703Z,99.90
2018-07-04T01:03:17.400Z,99.90
2018-07-04T01:05:57.038Z,99.90
2018-07-04T01:08:36.599Z,99.90
2018-07-04T01:11:16.234Z,99.90
2018-07-04T01:13:55.810Z,99.90
2018-07-04T01:16:35.459Z,99.90
2018-07-04T01:19:15.119Z,99.90
2018-07-04T01:21:54.660Z,99.90
2018-07-04T01:24:34.209Z,99.90
2018-07-04T01:27:13.889Z,99.90
2018-07-04T01:29:53.591Z,99.90
2018-07-04T01:32:33.331Z,99.90
2018-07-04T01:35:13.008Z,99.90
2018-07-04T01:37:52.693Z,99.90
2018-07-04T01:40:32.275Z,99.90
2018-07-04T01:43:11.878Z,99.90
2018-07-04T01:45:51.481Z,99.90
2018-07-04T01:48:31.176Z,99.90
2018-07-04T01:51:11.115Z,99.90
2018-07-04T01:53:50.801Z,99.90
2018-07-04T01:56:30.364Z,99.90
2018-07-04T01:59:10.689Z,99.90
2018-07-04T02:01:50.534Z,99.90
2018-07-04T02:04:30.182Z,99.90
2018-07-04T02:07:10.492Z,99.90
2018-07-04T02:09:50.425Z,99.90
2018-07-04T02:12:30.193Z,99.90
2018-07-04T02:15:09.943Z,99.90
2018-07-04T02:17:49.672Z,99.90
2018-07-04T02:20:29.620Z,99.90
2018-07-04T02:23:09.386Z,99.90
2018-07-04T02:25:49.092Z,99.90
2018-07-04T02:28:28.816Z,99.90
2018-07-04T02:31:08.516Z,99.90
2018-07-04T02:33:48.165Z,99.90
2018-07-04T02:36:27.805Z,99.90
2018-07-04T02:39:07.423Z,99.90
2018-07-04T02:41:47.064Z,99.90
2018-07-04T02:44:26.861Z,99.90
2018-07-04T02:47:09.177Z,99.90
2018-07-04T02:49:48.880Z,99.90
2018-07-04T02:52:29.345Z,99.90
2018-07-04T02:55:08.997Z,99.90
2018-07-04T02:57:48.733Z,99.90
2018-07-04T03:00:28.376Z,99.90
2018-07-04T03:03:07.977Z,99.90
2018-07-04T03:05:47.694Z,99.90
2018-07-04T03:08:27.407Z,99.90
2018-07-04T03:11:07.220Z,99.90
2018-07-04T03:13:47.700Z,99.90
2018-07-04T03:16:27.487Z,99.90
2018-07-04T03:19:07.302Z,99.90
2018-07-04T03:21:46.906Z,99.90
2018-07-04T03:24:26.698Z,99.90
2018-07-04T03:27:06.221Z,99.90
2018-07-04T03:29:45.896Z,99.90
2018-07-04T03:32:25.571Z,99.90
2018-07-04T03:35:05.273Z,99.90
2018-07-04T03:37:44.929Z,99.90
2018-07-04T03:40:24.590Z,99.90
2018-07-04T03:43:04.234Z,99.90
2018-07-04T03:45:43.948Z,99.90
2018-07-04T03:48:23.590Z,99.90
2018-07-04T03:51:03.259Z,99.90
2018-07-04T03:53:42.996Z,99.60
2018-07-04T03:56:22.640Z,99.10
2018-07-04T03:59:02.613Z,98.70
2018-07-04T04:01:42.197Z,98.50
2018-07-04T04:04:21.794Z,98.50
2018-07-04T04:07:01.567Z,98.40
2018-07-04T04:09:41.233Z,98.30
2018-07-04T04:12:20.908Z,98.20
2018-07-04T04:15:00.622Z,97.90
2018-07-04T04:17:40.398Z,97.30
2018-07-04T04:20:20.049Z,96.30
2018-07-04T04:23:00.388Z,95.50
2018-07-04T04:25:40.302Z,94.80
2018-07-04T04:28:20.053Z,94.70
2018-07-04T04:30:59.878Z,94.70
2018-07-04T04:33:39.529Z,94.60
2018-07-04T04:36:19.313Z,94.50
2018-07-04T04:38:59.012Z,94.30
2018-07-04T04:41:38.647Z,93.90
2018-07-04T04:44:18.175Z,93.70
2018-07-04T04:46:57.815Z,93.00
2018-07-04T04:49:37.386Z,92.20
2018-07-04T04:52:16.950Z,91.40
2018-07-04T04:54:56.606Z,90.50
2018-07-04T04:57:36.310Z,88.60
2018-07-04T05:00:15.999Z,87.10
2018-07-04T05:02:55.669Z,85.40
2018-07-04T05:05:36.054Z,85.00
2018-07-04T05:08:15.972Z,86.60
2018-07-04T05:10:55.653Z,88.50
2018-07-04T05:13:35.982Z,89.50
2018-07-04T05:16:16.351Z,90.50
2018-07-04T05:18:56.955Z,90.70
2018-07-04T05:21:36.703Z,90.90
2018-07-04T05:24:16.536Z,91.30
2018-07-04T05:26:56.312Z,91.10
2018-07-04T05:29:35.774Z,91.20
2018-07-04T05:32:16.155Z,90.60
2018-07-04T05:34:55.974Z,89.50
2018-07-04T05:37:35.774Z,89.00
2018-07-04T05:40:15.487Z,87.40
2018-07-04T05:42:55.184Z,85.90
2018-07-04T05:45:35.120Z,84.40
2018-07-04T05:48:14.722Z,83.20
2018-07-04T05:50:54.470Z,81.70
2018-07-04T05:53:34.330Z,79.60
2018-07-04T05:56:14.110Z,77.80
2018-07-04T05:58:53.870Z,75.60
2018-07-04T06:01:33.528Z,73.30
2018-07-04T06:04:13.330Z,72.50
2018-07-04T06:06:52.983Z,73.30
2018-07-04T06:09:32.625Z,74.10
2018-07-04T06:12:12.337Z,75.20
2018-07-04T06:14:52.091Z,76.20
2018-07-04T06:17:32.421Z,75.90
2018-07-04T06:20:12.339Z,74.40
2018-07-04T06:22:52.457Z,74.20
2018-07-04T06:25:31.995Z,73.80
2018-07-04T06:28:11.656Z,73.30
2018-07-04T06:30:51.368Z,72.10
2018-07-04T06:33:30.965Z,71.40
2018-07-04T06:36:10.660Z,71.20
2018-07-04T06:38:37.983Z,70.40
2018-07-04T06:41:05.350Z,70.00
2018-07-04T06:43:40.156Z,69.40
2018-07-04T06:46:07.456Z,69.10
2018-07-04T06:48:49.195Z,68.50
2018-07-04T06:51:18.823Z,69.70
2018-07-04T06:53:46.140Z,69.00
2018-07-04T06:56:13.779Z,68.40
2018-07-04T06:58:41.096Z,68.80
2018-07-04T07:01:09.646Z,69.20
2018-07-04T07:03:50.956Z,69.00
2018-07-04T07:06:31.393Z,68.10
2018-07-04T07:09:13.652Z,67.30
2018-07-04T07:11:53.657Z,66.80
2018-07-04T07:14:33.326Z,66.80
2018-07-04T07:17:13.120Z,66.50
2018-07-04T07:19:52.879Z,66.10
2018-07-04T07:22:32.645Z,66.20
2018-07-04T07:25:12.389Z,67.50
2018-07-04T07:27:52.160Z,66.30
2018-07-04T07:30:31.880Z,66.20
2018-07-04T07:33:12.364Z,66.10
2018-07-04T07:35:52.380Z,65.60
2018-07-04T07:38:32.597Z,65.20
2018-07-04T07:41:12.378Z,64.30
2018-07-04T07:43:52.214Z,64.10
2018-07-04T07:46:31.923Z,63.00
2018-07-04T07:49:11.593Z,63.20
2018-07-04T07:51:51.301Z,61.70
2018-07-04T07:54:31.035Z,61.50
2018-07-04T07:57:10.847Z,60.40
2018-07-04T07:59:50.544Z,60.00
2018-07-04T08:02:30.794Z,59.60
2018-07-04T08:05:10.942Z,58.10
2018-07-04T08:07:50.617Z,58.50
2018-07-04T08:10:30.309Z,58.70
2018-07-04T08:13:10.342Z,56.90
2018-07-04T08:15:49.849Z,56.90
2018-07-04T08:18:29.528Z,57.00
2018-07-04T08:21:09.206Z,56.00
2018-07-04T08:23:48.761Z,55.70
2018-07-04T08:26:28.298Z,54.50
2018-07-04T08:29:08.376Z,55.40
2018-07-04T08:31:48.319Z,56.00
2018-07-04T08:34:28.153Z,56.50
2018-07-04T08:37:07.794Z,55.30
2018-07-04T08:39:47.539Z,56.10
2018-07-04T08:42:27.220Z,54.70
2018-07-04T08:45:07.038Z,54.70
2018-07-04T08:47:46.779Z,53.40
2018-07-04T08:50:26.429Z,53.50
2018-07-04T08:53:06.128Z,54.60
2018-07-04T08:55:45.950Z,55.00
2018-07-04T08:58:25.554Z,54.60
2018-07-04T09:01:05.647Z,55.70
2018-07-04T09:03:45.574Z,56.00
2018-07-04T09:06:25.361Z,55.10
2018-07-04T09:09:05.091Z,55.00
2018-07-04T09:11:45.123Z,52.90
2018-07-04T09:14:25.641Z,52.60
2018-07-04T09:17:05.482Z,51.50
2018-07-04T09:19:45.242Z,52.80
2018-07-04T09:22:24.876Z,51.80
2018-07-04T09:25:04.728Z,51.60
2018-07-04T09:27:44.256Z,51.60
2018-07-04T09:30:23.985Z,50.70
2018-07-04T09:33:03.721Z,50.60
2018-07-04T09:35:45.847Z,50.40
2018-07-04T09:40:59.486Z,51.20
2018-07-04T09:43:39.226Z,50.70
2018-07-04T09:46:19.204Z,50.50
2018-07-04T09:48:58.848Z,50.60
2018-07-04T09:51:38.742Z,49.70
2018-07-04T09:54:18.454Z,49.80
2018-07-04T09:56:58.085Z,48.80
2018-07-04T09:59:37.790Z,50.00
2018-07-04T10:02:17.511Z,49.40
2018-07-04T10:04:57.364Z,48.90
2018-07-04T10:10:11.012Z,50.20
2018-07-04T10:15:24.694Z,47.90
2018-07-04T10:18:04.435Z,47.80
2018-07-04T10:20:44.248Z,46.20
2018-07-04T10:23:24.454Z,44.60
2018-07-04T10:26:04.840Z,45.70
2018-07-04T10:28:44.660Z,46.50
2018-07-04T10:31:24.546Z,45.70
2018-07-04T10:34:04.157Z,45.50
2018-07-04T10:36:43.891Z,45.40
2018-07-04T10:39:24.035Z,46.00
2018-07-04T10:42:04.315Z,46.10
2018-07-04T10:44:44.050Z,44.90
2018-07-04T10:47:23.686Z,45.70
2018-07-04T10:50:03.297Z,45.00
2018-07-04T10:52:43.061Z,45.90
2018-07-04T10:55:22.902Z,46.30
2018-07-04T10:58:02.526Z,45.60
2018-07-04T11:00:42.228Z,45.60
2018-07-04T11:03:21.975Z,45.00
2018-07-04T11:06:01.809Z,44.20
2018-07-04T11:08:41.628Z,44.20
2018-07-04T11:11:21.579Z,44.60
2018-07-04T11:14:01.192Z,43.50
2018-07-04T11:16:40.925Z,42.80
2018-07-04T11:19:20.550Z,43.30
2018-07-04T11:22:00.975Z,43.40
2018-07-04T11:24:40.821Z,43.00
2018-07-04T11:27:20.598Z,43.00
2018-07-04T11:30:00.866Z,40.40
2018-07-04T11:32:40.686Z,40.40
2018-07-04T11:35:20.292Z,40.70
2018-07-04T11:37:59.885Z,40.70
2018-07-04T11:40:39.648Z,40.10
2018-07-04T11:43:19.464Z,40.10
2018-07-04T11:45:54.278Z,40.20
2018-07-04T11:48:21.741Z,40.30
2018-07-04T11:50:49.045Z,40.40
2018-07-04T11:53:16.499Z,40.00
2018-07-04T11:55:43.789Z,40.40
2018-07-04T11:58:11.208Z,39.40
2018-07-04T12:00:38.575Z,39.80
2018-07-04T12:03:18.643Z,39.00
2018-07-04T12:05:58.373Z,39.20
2018-07-04T12:08:27.118Z,39.80
2018-07-04T12:10:56.170Z,40.30
2018-07-04T12:15:53.555Z,40.80
2018-07-04T12:18:21.584Z,39.50
2018-07-04T12:20:49.041Z,36.60
2018-07-04T12:23:16.442Z,36.60
2018-07-04T12:25:44.714Z,35.90
2018-07-04T12:28:12.057Z,34.20
2018-07-04T12:30:39.395Z,34.30
2018-07-04T12:33:06.699Z,35.10
2018-07-04T12:35:34.058Z,35.10
2018-07-04T12:38:01.403Z,35.60
2018-07-04T12:40:28.730Z,34.70
2018-07-04T12:42:56.057Z,35.30
2018-07-04T12:45:23.505Z,35.60
2018-07-04T12:47:50.855Z,35.80
2018-07-04T12:50:25.212Z,35.10
2018-07-04T12:52:52.563Z,35.50
2018-07-04T12:55:36.065Z,35.00
2018-07-04T12:58:16.633Z,36.00
2018-07-04T13:00:57.108Z,36.50
2018-07-04T13:03:36.988Z,36.30
2018-07-04T13:06:16.758Z,35.90
2018-07-04T13:08:56.529Z,35.70
2018-07-04T13:11:36.239Z,36.40
2018-07-04T13:14:16.703Z,35.40
2018-07-04T13:16:56.367Z,35.70
2018-07-04T13:19:36.405Z,35.10
2018-07-04T13:22:16.086Z,35.30
2018-07-04T13:24:55.759Z,35.90
2018-07-04T13:27:35.285Z,36.40
2018-07-04T13:30:14.847Z,34.50
2018-07-04T13:32:54.554Z,34.80
2018-07-04T13:35:34.042Z,35.70
2018-07-04T13:38:13.814Z,36.00
2018-07-04T13:40:53.512Z,35.20
2018-07-04T13:43:33.228Z,35.70
2018-07-04T13:46:12.933Z,35.90
2018-07-04T13:48:52.755Z,35.00
2018-07-04T13:51:32.370Z,34.80
2018-07-04T13:54:12.032Z,34.80
2018-07-04T13:56:51.661Z,34.90
2018-07-04T13:59:31.285Z,34.60
2018-07-04T14:02:11.156Z,35.40
2018-07-04T14:04:50.826Z,34.80
2018-07-04T14:07:30.570Z,34.90
2018-07-04T14:10:10.203Z,35.60
2018-07-04T14:12:49.826Z,34.90
2018-07-04T14:15:29.452Z,35.30
2018-07-04T14:18:09.281Z,35.30
2018-07-04T14:20:49.226Z,35.40
2018-07-04T14:23:28.933Z,36.20
2018-07-04T14:26:08.760Z,36.30
2018-07-04T14:28:48.539Z,36.50
2018-07-04T14:31:28.118Z,35.60
2018-07-04T14:34:07.710Z,36.30
2018-07-04T14:36:47.442Z,35.50
2018-07-04T14:39:27.425Z,36.20
2018-07-04T14:42:07.448Z,35.00
2018-07-04T14:44:47.615Z,34.80
2018-07-04T14:47:27.670Z,34.80
2018-07-04T14:50:07.761Z,34.40
2018-07-04T14:52:47.786Z,35.60
2018-07-04T14:55:27.858Z,35.30
2018-07-04T14:58:07.923Z,35.90
2018-07-04T15:00:47.945Z,35.40
2018-07-04T15:03:28.128Z,37.10
2018-07-04T15:06:08.217Z,36.50
2018-07-04T15:08:48.502Z,36.10
2018-07-04T15:11:28.425Z,35.40
2018-07-04T15:14:08.650Z,35.20
2018-07-04T15:16:48.642Z,35.80
2018-07-04T15:19:28.660Z,36.10
2018-07-04T15:22:08.803Z,36.30
2018-07-04T15:24:50.041Z,36.80
2018-07-04T15:27:29.990Z,37.50
2018-07-04T15:30:10.353Z,37.80
2018-07-04T15:32:50.736Z,38.60
2018-07-04T15:35:30.934Z,39.20
2018-07-04T15:38:11.148Z,40.20
2018-07-04T15:40:51.403Z,41.00
2018-07-04T15:43:31.088Z,41.20
2018-07-04T15:46:10.620Z,41.40
2018-07-04T15:48:50.280Z,41.00
2018-07-04T15:51:30.187Z,40.60
2018-07-04T15:54:09.878Z,40.90
2018-07-04T15:56:49.704Z,41.00
2018-07-04T15:59:29.512Z,42.10
2018-07-04T16:02:09.190Z,41.10
2018-07-04T16:07:22.578Z,42.10
2018-07-04T16:10:02.270Z,42.30
2018-07-04T16:12:41.903Z,41.90
2018-07-04T16:15:21.547Z,41.20
2018-07-04T16:18:01.107Z,40.00
2018-07-04T16:20:40.687Z,39.30
2018-07-04T16:23:20.247Z,39.60
2018-07-04T16:26:00.022Z,40.00
2018-07-04T16:28:39.920Z,40.00
2018-07-04T16:31:19.645Z,41.10
2018-07-04T16:33:59.303Z,39.40
2018-07-04T16:36:38.964Z,38.80
2018-07-04T16:39:18.677Z,38.60
2018-07-04T16:41:58.433Z,38.30
2018-07-04T16:44:38.278Z,37.40
2018-07-04T16:47:18.104Z,38.00
2018-07-04T16:49:57.579Z,38.30
2018-07-04T16:52:37.990Z,37.60
2018-07-04T16:55:17.774Z,37.10
2018-07-04T16:57:57.395Z,37.10
2018-07-04T17:00:37.025Z,36.80
2018-07-04T17:05:50.448Z,35.90
2018-07-04T17:08:30.152Z,35.20
2018-07-04T17:11:10.273Z,35.50
2018-07-04T17:13:49.968Z,35.20
2018-07-04T17:16:29.742Z,34.20
2018-07-04T17:19:09.642Z,33.80
2018-07-04T17:21:49.282Z,34.10
2018-07-04T17:24:29.077Z,35.90
2018-07-04T17:27:08.664Z,37.60
2018-07-04T17:29:48.351Z,39.70
2018-07-04T17:32:28.034Z,41.80
2018-07-04T17:35:07.898Z,42.90
2018-07-04T17:37:47.525Z,44.30
2018-07-04T17:40:27.260Z,46.10
2018-07-04T17:43:06.952Z,46.70
2018-07-04T17:45:46.649Z,47.00
2018-07-04T17:48:26.175Z,47.90
2018-07-04T17:51:05.823Z,48.60
2018-07-04T17:53:45.439Z,49.60
2018-07-04T17:56:25.106Z,50.30
2018-07-04T17:59:04.794Z,51.30
2018-07-04T18:01:45.199Z,51.90
2018-07-04T18:04:24.851Z,52.50
2018-07-04T18:07:04.497Z,54.10
2018-07-04T18:09:44.102Z,55.00
2018-07-04T18:12:23.962Z,55.00
2018-07-04T18:15:03.779Z,56.00
2018-07-04T18:17:43.453Z,56.50
2018-07-04T18:20:23.073Z,57.00
2018-07-04T18:23:02.666Z,58.00
2018-07-04T18:25:42.462Z,58.40
2018-07-04T18:28:22.264Z,58.90
2018-07-04T18:31:02.051Z,59.00
2018-07-04T18:33:42.531Z,57.00
2018-07-04T18:36:22.236Z,54.40
2018-07-04T18:39:01.979Z,50.60
2018-07-04T18:41:41.664Z,49.20
2018-07-04T18:44:21.538Z,47.50
2018-07-04T18:47:02.086Z,47.40
2018-07-04T18:49:41.724Z,47.10
2018-07-04T18:52:21.443Z,47.20
2018-07-04T18:55:01.184Z,47.40
2018-07-04T18:57:41.105Z,48.10
2018-07-04T19:00:20.749Z,47.90
2018-07-04T19:03:00.396Z,48.90
2018-07-04T19:05:40.034Z,49.40
2018-07-04T19:08:20.560Z,50.00
2018-07-04T19:11:00.447Z,50.40
2018-07-04T19:13:40.113Z,50.90
2018-07-04T19:16:19.823Z,50.60
2018-07-04T19:18:59.555Z,52.20
2018-07-04T19:21:39.223Z,51.60
2018-07-04T19:24:18.982Z,52.00
2018-07-04T19:26:58.694Z,52.10
2018-07-04T19:29:38.435Z,52.50
2018-07-04T19:32:18.087Z,52.80
2018-07-04T19:34:58.294Z,53.10
2018-07-04T19:37:38.089Z,53.40
2018-07-04T19:40:17.858Z,53.70
2018-07-04T19:42:57.727Z,54.10
2018-07-04T19:45:37.290Z,54.60
2018-07-04T19:48:16.977Z,55.00
2018-07-04T19:50:56.627Z,55.50
2018-07-04T19:53:36.427Z,55.80
2018-07-04T19:56:15.966Z,56.30
2018-07-04T19:58:55.657Z,56.60
2018-07-04T20:01:35.554Z,56.90
2018-07-04T20:04:15.256Z,57.90
2018-07-04T20:06:55.049Z,58.10
2018-07-04T20:09:34.654Z,58.10
2018-07-04T20:12:14.190Z,58.30
2018-07-04T20:14:53.819Z,59.70
2018-07-04T20:17:33.473Z,61.80
2018-07-04T20:20:13.097Z,61.10
2018-07-04T20:22:52.868Z,60.20
2018-07-04T20:25:32.651Z,60.40
2018-07-04T20:28:12.260Z,60.90
2018-07-04T20:30:51.825Z,64.30
2018-07-04T20:33:31.590Z,63.00
2018-07-04T20:36:11.266Z,63.00
2018-07-04T20:38:50.878Z,62.40
2018-07-04T20:41:30.540Z,62.10
2018-07-04T20:46:44.594Z,62.80
2018-07-04T20:49:24.428Z,63.20
2018-07-04T20:52:04.229Z,63.50
2018-07-04T20:54:43.784Z,64.10
2018-07-04T20:57:23.484Z,63.40
2018-07-04T21:00:02.981Z,63.50
2018-07-04T21:02:43.384Z,66.60
2018-07-04T21:05:23.097Z,65.90
2018-07-04T21:08:02.756Z,65.90
2018-07-04T21:10:42.421Z,65.20
2018-07-04T21:13:22.470Z,68.80
2018-07-04T21:16:02.116Z,70.30
2018-07-04T21:18:41.904Z,70.30
2018-07-04T21:21:21.595Z,70.60
2018-07-04T21:24:01.239Z,68.70
2018-07-04T21:26:40.873Z,69.00
2018-07-04T21:29:20.478Z,68.60
2018-07-04T21:32:00.686Z,68.40
2018-07-04T21:34:41.245Z,72.00
2018-07-04T21:37:21.005Z,74.40
2018-07-04T21:40:00.793Z,71.40
2018-07-04T21:42:40.431Z,70.20
2018-07-04T21:45:20.205Z,69.00
2018-07-04T21:47:59.952Z,71.10
2018-07-04T21:50:39.554Z,69.00
2018-07-04T21:53:19.875Z,71.50
2018-07-04T21:55:59.668Z,70.40
2018-07-04T21:58:39.363Z,72.90
2018-07-04T22:01:19.135Z,71.40
2018-07-04T22:03:58.845Z,72.10
2018-07-04T22:06:38.401Z,72.60
2018-07-04T22:09:18.207Z,72.30
2018-07-04T22:11:58.010Z,71.60
2018-07-04T22:14:37.732Z,70.70
2018-07-04T22:17:17.346Z,73.00
2018-07-04T22:19:57.058Z,72.00
2018-07-04T22:22:36.615Z,73.70
2018-07-04T22:25:16.208Z,73.10
2018-07-04T22:27:55.836Z,75.40
2018-07-04T22:30:35.497Z,73.50
2018-07-04T22:33:15.174Z,73.70
2018-07-04T22:35:55.701Z,72.70
2018-07-04T22:38:35.642Z,74.70
2018-07-04T22:41:15.374Z,72.50
2018-07-04T22:43:55.009Z,72.70
2018-07-04T22:46:34.640Z,72.70
2018-07-04T22:49:14.401Z,72.60
2018-07-04T22:51:53.946Z,73.40
2018-07-04T22:54:33.518Z,73.40
2018-07-04T22:57:13.981Z,74.00
2018-07-04T22:59:53.799Z,75.40
2018-07-04T23:02:33.399Z,74.20
2018-07-04T23:05:12.946Z,74.00
2018-07-04T23:07:52.423Z,74.20
2018-07-04T23:10:32.099Z,74.50
2018-07-04T23:13:12.045Z,74.70
2018-07-04T23:15:51.699Z,75.40
2018-07-04T23:18:31.314Z,75.50
2018-07-04T23:21:11.070Z,76.80
2018-07-04T23:23:50.783Z,77.10
2018-07-04T23:26:30.958Z,77.60
2018-07-04T23:29:10.682Z,78.40
2018-07-04T23:31:50.221Z,78.50
2018-07-04T23:34:29.859Z,78.60
2018-07-04T23:37:10.326Z,79.00
2018-07-04T23:39:50.043Z,79.70
2018-07-04T23:42:29.678Z,80.10
2018-07-04T23:45:10.014Z,80.50
2018-07-04T23:47:49.852Z,80.80
2018-07-04T23:50:29.532Z,81.50
2018-07-04T23:53:09.307Z,81.90
2018-07-04T23:55:49.056Z,83.00
2018-07-04T23:58:28.718Z,83.30
